Time;durP1;ratioP1;P1;durP2;ratioP2;P2;SDS_P1;SDS_P2;PMS_P1;PMS_P2;Temp;Humidity;BMP_temperature;BMP_pressure;BME280_temperature;BME280_humidity;BME280_pressure;Samples;Min_cycle;Max_cycle;Signal;HPM_P1;HPM_P2
2022/06/03 00:00:22;;;;;;;1042.30;974.35;;;;;;;14.11;53.93;101772.38;689787;28;113528;-66
2022/06/03 00:00:55;;;;;;;1026.65;959.53;;;;;;;14.11;53.86;101780.53;691845;28;69375;-65
2022/06/03 00:01:28;;;;;;;1022.35;955.40;;;;;;;14.10;54.03;101778.81;689279;28;135570;-65
2022/06/03 00:02:03;;;;;;;1020.08;953.25;;;;;;;14.10;54.34;101776.09;688465;28;136041;-66
2022/06/03 00:02:56;;;;;;;1021.58;954.78;;;;;;;14.09;54.45;101777.97;689322;28;136046;-66
2022/06/03 00:03:30;;;;;;;1028.57;961.38;;;;;;;14.10;54.32;101781.53;688454;28;137703;-66
2022/06/03 00:04:00;;;;;;;1002.58;936.78;;;;;;;14.10;54.04;101776.09;688483;28;137718;-66
2022/06/03 00:04:35;;;;;;;999.50;933.83;;;;;;;14.11;54.18;101780.53;688025;28;136119;-66
2022/06/03 00:05:25;;;;;;;1003.10;937.20;;;;;;;14.10;54.41;101776.94;687110;28;156482;-66
2022/06/03 00:06:03;;;;;;;992.63;927.20;;;;;;;14.10;54.16;101776.94;688408;28;138507;-66
2022/06/03 00:06:30;;;;;;;1002.35;936.45;;;;;;;14.09;54.24;101771.69;687869;28;138618;-66
2022/06/03 00:07:05;;;;;;;1013.65;947.20;;;;;;;14.09;54.12;101775.25;687360;28;138407;-66
2022/06/03 00:07:32;;;;;;;1017.05;950.25;;;;;;;14.07;54.33;101771.84;687976;28;136025;-66
2022/06/03 00:08:08;;;;;;;1021.47;954.58;;;;;;;14.06;54.35;101779.16;687540;28;161213;-66
2022/06/03 00:09:02;;;;;;;1019.60;952.80;;;;;;;14.05;54.18;101779.34;687480;28;135940;-65
2022/06/03 00:09:52;;;;;;;1011.00;944.60;;;;;;;14.04;54.50;101781.22;687686;28;137512;-66
2022/06/03 00:10:26;;;;;;;1006.67;940.58;;;;;;;14.04;54.22;101778.50;686776;28;157951;-66
2022/06/03 00:11:12;;;;;;;1024.38;957.47;;;;;;;14.02;54.27;101774.25;688317;28;138658;-66
2022/06/03 00:11:58;;;;;;;1016.80;950.08;;;;;;;14.00;54.46;101777.16;688010;28;137746;-65
2022/06/03 00:12:43;;;;;;;1026.90;959.78;;;;;;;13.99;54.34;101777.31;688024;28;137437;-66
2022/06/03 00:13:14;;;;;;;1016.17;949.67;;;;;;;13.96;54.24;101777.66;688400;28;137712;-66
2022/06/03 00:13:46;;;;;;;1014.15;947.55;;;;;;;13.91;54.51;101771.91;687013;28;159116;-66
2022/06/03 00:14:28;;;;;;;1017.28;950.60;;;;;;;13.91;54.72;101782.78;687351;28;160253;-66
2022/06/03 00:15:04;;;;;;;1013.47;946.95;;;;;;;13.87;54.53;101774.97;687573;28;138263;-66
2022/06/03 00:15:50;;;;;;;1015.17;948.58;;;;;;;13.85;54.57;101773.44;687979;28;137614;-66
2022/06/03 00:16:21;;;;;;;1010.80;944.40;;;;;;;13.83;54.66;101778.22;689382;28;112744;-66
2022/06/03 00:16:50;;;;;;;1017.03;950.22;;;;;;;13.82;54.79;101771.94;687079;28;160695;-66
2022/06/03 00:17:25;;;;;;;1008.03;941.63;;;;;;;13.80;54.63;101775.84;688609;28;137917;-66
2022/06/03 00:18:01;;;;;;;998.33;932.42;;;;;;;13.77;55.02;101768.03;688140;28;137209;-66
2022/06/03 00:19:10;;;;;;;1021.78;954.88;;;;;;;13.76;54.66;101774.50;687243;28;160572;-66
2022/06/03 00:19:41;;;;;;;1005.83;939.67;;;;;;;13.74;54.92;101774.66;680006;28;137707;-66
2022/06/03 00:20:11;;;;;;;1026.43;959.30;;;;;;;13.73;54.79;101774.81;678664;28;157440;-66
2022/06/03 00:20:45;;;;;;;1013.88;947.30;;;;;;;13.73;55.27;101772.97;679810;28;138672;-66
2022/06/03 00:21:09;;;;;;;1011.08;944.67;;;;;;;13.71;55.04;101772.28;687750;28;160538;-66
2022/06/03 00:21:53;;;;;;;1012.58;946.10;;;;;;;13.70;55.42;101776.03;689319;28;101286;-66
2022/06/03 00:22:28;;;;;;;1014.38;947.75;;;;;;;13.68;55.10;101769.91;688415;28;137293;-66
2022/06/03 00:23:11;;;;;;;1026.20;959.00;;;;;;;13.68;55.30;101767.19;688511;28;137354;-66
2022/06/03 00:23:54;;;;;;;1030.90;963.40;;;;;;;13.68;55.05;101769.91;687763;28;139062;-66
2022/06/03 00:24:24;;;;;;;1016.53;949.80;;;;;;;13.69;55.37;101769.75;687941;28;138538;-66
2022/06/03 00:25:00;;;;;;;1020.80;953.80;;;;;;;13.68;55.04;101769.91;687751;28;136094;-66
2022/06/03 00:25:45;;;;;;;1018.50;951.70;;;;;;;13.68;55.26;101773.50;688030;28;137429;-66
2022/06/03 00:26:17;;;;;;;1011.58;945.20;;;;;;;13.69;55.25;101767.03;688309;28;138544;-66
2022/06/03 00:27:12;;;;;;;1011.03;944.58;;;;;;;13.69;55.04;101772.47;688073;28;137550;-66
2022/06/03 00:27:41;;;;;;;998.60;932.67;;;;;;;13.71;55.33;101772.28;679758;28;137712;-66
2022/06/03 00:28:31;;;;;;;1001.80;935.88;;;;;;;13.72;55.01;101760.41;688431;28;138543;-66
2022/06/03 00:29:07;;;;;;;992.22;926.83;;;;;;;13.72;55.07;101774.00;688342;28;138130;-66
2022/06/03 00:29:41;;;;;;;1005.67;939.33;;;;;;;13.73;55.11;101767.56;688192;28;134899;-66
2022/06/03 00:30:12;;;;;;;1031.68;964.08;;;;;;;13.74;54.90;101771.94;686460;28;157485;-66
2022/06/03 00:30:45;;;;;;;1019.25;952.28;;;;;;;13.75;55.31;101770.94;688250;28;136408;-66
2022/06/03 00:31:16;;;;;;;1030.30;962.90;;;;;;;13.75;54.99;101770.09;688644;28;135999;-66
2022/06/03 00:31:56;;;;;;;1036.82;968.90;;;;;;;13.75;55.00;101768.22;687423;28;159013;-66
2022/06/03 00:32:44;;;;;;;1037.75;969.80;;;;;;;13.69;55.16;101758.88;687056;28;160610;-66
2022/06/03 00:33:33;;;;;;;1031.60;964.03;;;;;;;13.76;55.24;101772.63;687987;28;135478;-66
2022/06/03 00:34:11;;;;;;;1035.20;967.38;;;;;;;13.77;55.05;101768.88;685598;28;137564;-66
2022/06/03 00:34:50;;;;;;;1031.82;964.15;;;;;;;13.76;55.18;101775.34;687274;28;137536;-66
2022/06/03 00:35:37;;;;;;;1026.28;958.88;;;;;;;13.76;54.86;101766.34;687391;28;159097;-66
2022/06/03 00:36:13;;;;;;;1033.55;965.85;;;;;;;13.73;55.29;101761.25;688367;28;137456;-66
2022/06/03 00:36:46;;;;;;;1033.70;966.00;;;;;;;13.73;55.28;101761.25;688171;28;136047;-66
2022/06/03 00:37:18;;;;;;;1043.90;975.63;;;;;;;13.70;54.84;101763.31;688090;28;137497;-66
2022/06/03 00:37:47;;;;;;;1029.75;962.20;;;;;;;13.70;55.24;101771.44;688117;28;137412;-66
2022/06/03 00:38:21;;;;;;;1026.15;958.67;;;;;;;13.67;54.94;101763.66;688605;28;138100;-66
2022/06/03 00:38:56;;;;;;;1024.70;957.45;;;;;;;13.68;55.07;101768.06;687471;28;137386;-66
2022/06/03 00:39:31;;;;;;;1024.05;956.85;;;;;;;13.66;55.26;101772.81;686833;28;160175;-66
2022/06/03 00:39:59;;;;;;;1034.25;966.35;;;;;;;13.64;55.41;101752.28;686748;28;158016;-66
2022/06/03 00:40:32;;;;;;;1024.70;957.50;;;;;;;13.64;55.47;101761.28;687877;28;137234;-66
2022/06/03 00:41:05;;;;;;;1004.00;937.80;;;;;;;13.60;55.27;101754.50;688023;28;136041;-66
2022/06/03 00:41:37;;;;;;;1014.30;947.67;;;;;;;13.64;55.11;101766.72;687842;28;137731;-66
2022/06/03 00:42:08;;;;;;;1030.18;962.58;;;;;;;13.64;55.50;101769.41;687798;28;137708;-66
2022/06/03 00:42:43;;;;;;;1026.45;959.15;;;;;;;13.60;55.60;101757.19;687819;28;138358;-66
2022/06/03 00:43:14;;;;;;;1018.40;951.33;;;;;;;13.63;55.37;101761.44;687746;28;158837;-66
2022/06/03 00:43:47;;;;;;;1019.25;952.28;;;;;;;13.63;55.49;101770.44;687793;28;137934;-66
2022/06/03 00:44:18;;;;;;;1020.90;953.90;;;;;;;13.62;55.50;101765.19;687911;28;160663;-66
2022/06/03 00:44:56;;;;;;;1018.03;951.03;;;;;;;13.56;55.29;101755.88;687323;28;138348;-66
2022/06/03 00:45:37;;;;;;;1017.90;950.90;;;;;;;13.56;55.61;101758.59;688044;28;137535;-66
2022/06/03 00:46:24;;;;;;;1017.80;950.80;;;;;;;13.52;55.45;101765.38;688573;28;138446;-66
2022/06/03 00:46:59;;;;;;;1016.33;949.45;;;;;;;13.55;55.67;101762.31;687832;28;137430;-66
2022/06/03 00:47:41;;;;;;;1014.33;947.28;;;;;;;13.55;55.79;101761.47;687966;28;136860;-66
2022/06/03 00:48:19;;;;;;;1029.57;962.05;;;;;;;13.53;55.34;101761.66;687894;28;161410;-66
2022/06/03 00:49:10;;;;;;;1021.05;953.95;;;;;;;13.53;55.84;101764.34;688350;28;137539;-66
2022/06/03 00:49:46;;;;;;;1023.47;956.08;;;;;;;13.52;55.41;101765.38;687097;28;137709;-66
2022/06/03 00:50:34;;;;;;;1030.65;963.13;;;;;;;13.52;55.51;101755.34;687476;28;136115;-66
2022/06/03 00:51:11;;;;;;;1017.13;950.28;;;;;;;13.51;55.73;101755.53;687942;28;137544;-66
2022/06/03 00:51:57;;;;;;;1019.05;951.95;;;;;;;13.52;55.58;101754.50;687976;28;137727;-66
2022/06/03 00:52:36;;;;;;;1029.78;962.28;;;;;;;13.53;55.85;101761.66;687166;28;160658;-67
2022/06/03 00:53:34;;;;;;;1035.93;968.03;;;;;;;13.46;55.66;101756.06;688623;28;137510;-66
2022/06/03 00:54:39;;;;;;;1043.28;974.95;;;;;;;13.52;55.56;101762.66;680006;28;137310;-66
2022/06/03 00:55:45;;;;;;;1029.43;961.85;;;;;;;13.50;55.73;101759.28;678471;28;158507;-66
2022/06/03 00:56:51;;;;;;;1020.60;953.50;;;;;;;13.45;55.44;101758.94;679562;28;158921;-66
2022/06/03 00:57:42;;;;;;;1029.72;962.08;;;;;;;13.44;55.55;101754.53;676060;29;137301;-66
2022/06/03 00:58:19;;;;;;;1016.88;949.90;;;;;;;13.42;55.84;101762.00;682309;28;137348;-66
2022/06/03 00:58:52;;;;;;;1026.32;958.92;;;;;;;13.40;55.74;101758.59;687300;28;137547;-66
2022/06/03 00:59:32;;;;;;;1028.15;960.65;;;;;;;13.34;55.97;101755.53;688504;28;137344;-66
2022/06/03 01:00:05;;;;;;;1036.88;967.92;;;;;;;13.30;55.88;101759.56;685739;28;156366;-66
2022/06/03 01:00:28;;;;;;;1027.13;959.55;;;;;;;13.28;55.75;101760.78;689663;28;62470;-66
2022/06/03 01:01:00;;;;;;;1027.47;959.90;;;;;;;13.23;56.16;101761.28;688977;28;92191;-66
2022/06/03 01:01:28;;;;;;;1020.97;953.65;;;;;;;13.21;56.24;101759.75;689684;28;61302;-67
2022/06/03 01:01:57;;;;;;;1024.90;957.50;;;;;;;13.20;56.02;101766.19;687876;28;136377;-67
2022/06/03 01:02:40;;;;;;;1025.50;958.08;;;;;;;13.19;56.10;101764.50;687458;28;160650;-67
2022/06/03 01:03:11;;;;;;;1009.00;942.45;;;;;;;13.15;56.09;101758.59;688414;28;137456;-67
2022/06/03 01:03:45;;;;;;;1004.67;938.25;;;;;;;13.12;56.25;101753.50;687999;28;138338;-66
2022/06/03 01:04:36;;;;;;;1029.53;961.83;;;;;;;13.15;56.19;101758.59;690983;28;62656;-66
2022/06/03 01:05:07;;;;;;;1021.35;954.05;;;;;;;13.14;56.50;101760.44;686577;28;156544;-66
2022/06/03 01:05:34;;;;;;;1018.80;951.60;;;;;;;13.15;56.38;101753.16;688059;28;136044;-67
2022/06/03 01:06:15;;;;;;;1017.83;950.63;;;;;;;13.20;56.41;101761.63;688099;28;138168;-66
2022/06/03 01:06:46;;;;;;;1033.40;965.55;;;;;;;13.21;56.21;101757.88;687480;28;160967;-66
2022/06/03 01:07:14;;;;;;;1021.35;953.85;;;;;;;13.24;56.59;101756.69;687355;28;137669;-66
2022/06/03 01:07:45;;;;;;;1017.85;950.75;;;;;;;13.24;56.29;101760.25;688427;28;139143;-66
2022/06/03 01:08:14;;;;;;;1021.97;954.65;;;;;;;13.25;56.45;101758.41;688233;28;138321;-66
2022/06/03 01:08:45;;;;;;;1017.63;950.42;;;;;;;13.26;56.15;101763.66;688553;28;135226;-66
2022/06/03 01:09:16;;;;;;;1010.50;943.97;;;;;;;13.27;56.37;101761.78;687655;28;159808;-66
2022/06/03 01:09:57;;;;;;;1009.30;942.63;;;;;;;13.26;55.95;101760.94;687483;28;137661;-67
2022/06/03 01:10:53;;;;;;;1024.38;956.95;;;;;;;13.29;56.24;101765.16;687626;28;159703;-66
2022/06/03 01:11:30;;;;;;;1024.43;956.97;;;;;;;13.30;56.30;101762.28;676697;29;160913;-67
2022/06/03 01:12:06;;;;;;;1006.00;939.50;;;;;;;13.30;56.28;101765.00;677049;28;138409;-67
2022/06/03 01:12:49;;;;;;;1012.67;945.90;;;;;;;13.32;56.06;101763.00;677318;29;137726;-67
2022/06/03 01:13:22;;;;;;;1013.28;946.47;;;;;;;13.30;55.78;101765.00;671999;29;138342;-66
2022/06/03 01:14:03;;;;;;;1008.35;941.70;;;;;;;13.34;55.87;101768.28;676755;28;138658;-67
2022/06/03 01:14:36;;;;;;;1017.25;950.00;;;;;;;13.31;55.74;101766.72;688321;28;137091;-65
2022/06/03 01:15:18;;;;;;;1031.32;963.05;;;;;;;13.32;56.09;101764.84;687008;28;156856;-67
2022/06/03 01:15:43;;;;;;;1018.17;951.10;;;;;;;13.31;56.18;101766.72;687719;28;158026;-67
2022/06/03 01:16:19;;;;;;;1007.10;940.58;;;;;;;13.31;55.79;101764.00;688144;28;137406;-66
2022/06/03 01:16:54;;;;;;;1014.35;947.42;;;;;;;13.30;56.25;101762.28;687867;28;137394;-65
2022/06/03 01:17:25;;;;;;;1021.72;954.25;;;;;;;13.23;56.25;101753.16;687526;28;161357;-66
2022/06/03 01:18:08;;;;;;;1013.60;946.78;;;;;;;13.24;56.12;101760.25;687541;28;160575;-66
2022/06/03 01:18:40;;;;;;;1010.05;943.03;;;;;;;13.22;55.97;101762.31;689870;28;77941;-67
2022/06/03 01:19:09;;;;;;;1008.13;941.35;;;;;;;13.25;56.13;101764.69;688361;28;137604;-66
2022/06/03 01:19:43;;;;;;;1012.70;945.80;;;;;;;13.22;56.17;101765.00;683920;28;161307;-66
2022/06/03 01:20:37;;;;;;;1022.35;955.08;;;;;;;13.21;55.88;101771.44;684253;28;157173;-65
2022/06/03 01:21:07;;;;;;;1021.13;954.00;;;;;;;13.21;56.44;101768.72;685411;28;137387;-66
2022/06/03 01:21:41;;;;;;;1019.90;952.70;;;;;;;13.21;55.98;101771.44;691013;28;60096;-66
2022/06/03 01:22:15;;;;;;;1029.55;961.90;;;;;;;13.20;55.98;101775.19;688427;28;138321;-67
2022/06/03 01:23:08;;;;;;;1033.38;965.47;;;;;;;13.19;56.16;101769.94;688022;28;137650;-67
2022/06/03 01:24:05;;;;;;;1007.55;941.03;;;;;;;13.17;56.39;101772.81;688321;28;136262;-65
2022/06/03 01:24:43;;;;;;;1011.55;944.92;;;;;;;13.14;56.56;101767.72;688074;28;137792;-66
2022/06/03 01:25:29;;;;;;;1014.22;947.38;;;;;;;13.12;56.52;101767.06;687012;28;156425;-65
2022/06/03 01:26:12;;;;;;;1014.70;947.70;;;;;;;13.10;56.33;101772.66;687646;28;159052;-66
2022/06/03 01:26:55;;;;;;;1011.08;944.35;;;;;;;13.09;56.56;101772.81;688240;28;138106;-65
2022/06/03 01:27:44;;;;;;;1005.55;939.08;;;;;;;13.08;56.34;101768.41;687904;28;136256;-66
2022/06/03 01:28:48;;;;;;;1016.47;949.60;;;;;;;13.06;56.39;101771.28;688203;28;137314;-66
2022/06/03 01:29:32;;;;;;;1021.20;954.05;;;;;;;13.04;56.42;101772.47;679884;28;137554;-67
2022/06/03 01:30:12;;;;;;;1004.75;938.25;;;;;;;13.01;57.03;101768.22;679778;28;157237;-66
2022/06/03 01:30:48;;;;;;;1008.15;941.50;;;;;;;13.01;56.62;101770.94;688134;28;138341;-66
2022/06/03 01:31:22;;;;;;;1029.93;962.22;;;;;;;13.00;56.79;101768.41;687902;28;135440;-66
2022/06/03 01:32:00;;;;;;;1035.07;967.00;;;;;;;12.99;56.50;101764.81;686959;28;160672;-65
2022/06/03 01:32:42;;;;;;;1040.80;972.33;;;;;;;13.00;56.55;101771.13;688267;28;135483;-66
2022/06/03 01:33:30;;;;;;;1024.05;956.63;;;;;;;12.97;56.65;101772.28;688223;28;138428;-66
2022/06/03 01:34:07;;;;;;;1013.53;946.72;;;;;;;12.99;56.86;101770.25;687168;28;161043;-66
2022/06/03 01:34:35;;;;;;;1015.33;948.63;;;;;;;13.00;56.64;101771.13;688297;28;135990;-65
2022/06/03 01:35:25;;;;;;;1018.38;951.47;;;;;;;12.99;56.75;101767.53;686670;28;158147;-65
2022/06/03 01:36:15;;;;;;;1020.22;953.22;;;;;;;13.01;56.56;101767.38;688082;28;137837;-66
2022/06/03 01:36:49;;;;;;;1026.15;958.88;;;;;;;13.00;56.71;101771.13;688348;28;135954;-65
2022/06/03 01:37:16;;;;;;;1019.20;952.20;;;;;;;12.98;56.69;101769.41;687255;28;136025;-66
2022/06/03 01:37:45;;;;;;;1018.10;951.15;;;;;;;12.97;56.57;101770.41;688111;28;138002;-67
2022/06/03 01:38:16;;;;;;;1022.92;955.65;;;;;;;12.97;57.04;101767.69;688265;28;137767;-66
2022/06/03 01:39:02;;;;;;;1021.05;953.97;;;;;;;12.97;57.00;101769.56;688197;28;135805;-66
2022/06/03 01:40:05;;;;;;;1014.85;948.00;;;;;;;12.96;56.97;101770.59;687890;28;137404;-67
2022/06/03 01:40:57;;;;;;;1021.65;954.55;;;;;;;12.92;57.08;101770.06;680940;28;180127;-65
2022/06/03 01:41:33;;;;;;;1023.17;955.97;;;;;;;12.92;57.17;101764.66;687227;28;137526;-65
2022/06/03 01:42:32;;;;;;;1028.95;961.45;;;;;;;12.90;57.06;101761.28;687119;28;137716;-65
2022/06/03 01:43:15;;;;;;;1032.50;964.85;;;;;;;12.91;56.73;101768.38;688016;28;138450;-67
2022/06/03 01:43:49;;;;;;;1029.85;962.40;;;;;;;12.89;56.77;101773.13;687644;28;137629;-66
2022/06/03 01:44:25;;;;;;;1025.28;958.15;;;;;;;12.89;57.17;101769.56;688262;28;137924;-66
2022/06/03 01:45:07;;;;;;;1029.43;962.05;;;;;;;12.86;57.11;101767.19;687260;28;136024;-66
2022/06/03 01:45:54;;;;;;;1041.10;973.10;;;;;;;12.84;57.29;101767.34;687906;28;137653;-65
2022/06/03 01:46:25;;;;;;;1027.45;960.25;;;;;;;12.84;56.93;101767.34;684642;28;160754;-66
2022/06/03 01:47:10;;;;;;;1033.38;965.72;;;;;;;12.83;57.02;101762.94;687664;28;137436;-65
2022/06/03 01:48:10;;;;;;;1033.68;965.97;;;;;;;12.82;57.25;101768.53;687642;28;135873;-67
2022/06/03 01:49:16;;;;;;;1039.53;971.55;;;;;;;12.79;56.92;101767.84;687619;28;137221;-66
2022/06/03 01:49:52;;;;;;;1040.38;972.15;;;;;;;12.77;57.12;101763.59;687095;28;136010;-64
2022/06/03 01:50:28;;;;;;;1018.80;951.78;;;;;;;12.77;57.09;101767.19;688601;28;125266;-66
2022/06/03 01:51:19;;;;;;;1022.35;955.15;;;;;;;12.76;57.50;101765.47;687914;28;137651;-67
2022/06/03 01:52:20;;;;;;;1035.60;967.80;;;;;;;12.74;57.08;101762.09;687938;28;137352;-67
2022/06/03 01:53:05;;;;;;;1042.32;974.13;;;;;;;12.72;57.44;101772.22;688040;28;137962;-67
2022/06/03 01:53:59;;;;;;;1036.80;969.08;;;;;;;12.70;57.30;101765.31;687905;28;137700;-67
2022/06/03 01:54:39;;;;;;;1044.55;976.28;;;;;;;12.69;57.67;101771.72;686014;28;159056;-66
2022/06/03 01:55:36;;;;;;;1029.15;961.70;;;;;;;12.65;57.32;101765.81;686673;28;157352;-67
2022/06/03 01:56:30;;;;;;;1027.95;960.45;;;;;;;12.68;57.72;101768.19;682198;28;139236;-66
2022/06/03 01:57:02;;;;;;;1029.10;961.58;;;;;;;12.67;57.75;101766.47;679604;28;137660;-67
2022/06/03 01:58:01;;;;;;;1028.57;961.17;;;;;;;12.68;57.66;101761.88;682519;28;60775;-66
2022/06/03 01:58:56;;;;;;;1037.13;969.28;;;;;;;12.65;57.40;101756.81;682226;28;136032;-67
2022/06/03 02:00:03;;;;;;;1028.75;961.30;;;;;;;12.67;57.49;101765.63;682639;28;132386;-67
2022/06/03 02:00:31;;;;;;;1055.43;986.50;;;;;;;12.67;57.36;101769.19;687424;28;126746;-66
2022/06/03 02:01:01;;;;;;;1042.80;974.60;;;;;;;12.66;57.39;101764.75;687819;28;137894;-67
2022/06/03 02:01:50;;;;;;;1025.78;958.38;;;;;;;12.65;57.52;101768.50;687067;28;137888;-67
2022/06/03 02:02:38;;;;;;;1027.10;959.83;;;;;;;12.64;57.66;101760.53;681193;28;137542;-67
2022/06/03 02:03:20;;;;;;;1043.30;974.97;;;;;;;12.62;57.42;101764.25;681313;28;135810;-67
2022/06/03 02:03:54;;;;;;;1057.95;988.95;;;;;;;12.64;57.39;101760.53;688249;28;136012;-69
2022/06/03 02:04:32;;;;;;;1048.40;979.78;;;;;;;12.59;57.27;101756.47;688153;28;137770;-66
2022/06/03 02:05:15;;;;;;;1054.53;985.63;;;;;;;12.61;57.58;101759.00;686666;28;158095;-66
2022/06/03 02:05:55;;;;;;;1063.30;993.83;;;;;;;12.60;57.53;101763.59;687229;28;137601;-66
2022/06/03 02:06:57;;;;;;;1064.07;994.67;;;;;;;12.61;57.32;101757.13;688043;28;138378;-66
2022/06/03 02:07:35;;;;;;;1041.25;973.05;;;;;;;12.62;57.34;101763.41;687812;28;135956;-66
2022/06/03 02:08:24;;;;;;;1051.07;982.58;;;;;;;12.61;57.75;101761.72;688084;28;137399;-66
2022/06/03 02:09:04;;;;;;;1037.72;969.78;;;;;;;12.57;57.51;101758.50;684478;28;137183;-66
2022/06/03 02:09:57;;;;;;;1052.05;983.35;;;;;;;12.58;57.84;101765.59;687639;28;138228;-66
2022/06/03 02:10:35;;;;;;;1037.57;969.75;;;;;;;12.56;57.45;101764.06;674390;28;157275;-66
2022/06/03 02:11:31;;;;;;;1039.40;971.42;;;;;;;12.53;57.45;101767.97;676836;28;139055;-66
2022/06/03 02:12:26;;;;;;;1043.18;974.92;;;;;;;12.48;57.96;101764.91;673762;29;137742;-66
2022/06/03 02:13:14;;;;;;;1050.35;981.70;;;;;;;12.44;58.09;101767.09;687758;28;137770;-65
2022/06/03 02:14:12;;;;;;;1041.63;973.53;;;;;;;12.43;58.27;101772.69;688258;28;137271;-65
2022/06/03 02:15:04;;;;;;;1057.47;988.53;;;;;;;12.39;57.94;101768.59;681430;28;137695;-66
2022/06/03 02:15:55;;;;;;;1068.72;998.95;;;;;;;12.37;58.01;101770.63;685324;28;138510;-65
2022/06/03 02:16:37;;;;;;;1040.32;972.10;;;;;;;12.38;58.40;101766.88;687636;28;136755;-65
2022/06/03 02:17:10;;;;;;;1037.20;969.20;;;;;;;12.38;58.55;101766.88;687849;28;137737;-65
2022/06/03 02:17:48;;;;;;;1053.88;985.08;;;;;;;12.38;58.38;101762.34;686966;28;135996;-65
2022/06/03 02:18:33;;;;;;;1052.30;983.63;;;;;;;12.40;58.16;101768.44;688214;28;137497;-66
2022/06/03 02:19:38;;;;;;;1033.90;966.17;;;;;;;12.41;58.08;101770.13;678147;28;138421;-65
2022/06/03 02:20:36;;;;;;;1041.32;973.22;;;;;;;12.44;58.39;101771.66;673250;28;157526;-67
2022/06/03 02:21:23;;;;;;;1031.55;963.92;;;;;;;12.44;58.32;101767.09;675915;29;137272;-67
2022/06/03 02:22:00;;;;;;;1047.70;979.20;;;;;;;12.43;57.94;101765.38;676933;29;137376;-67
2022/06/03 02:22:43;;;;;;;1036.85;968.85;;;;;;;12.41;57.75;101767.44;676579;29;160668;-67
2022/06/03 02:23:41;;;;;;;1035.03;967.22;;;;;;;12.39;58.07;101768.59;679990;28;137105;-66
2022/06/03 02:24:18;;;;;;;1037.90;969.90;;;;;;;12.35;58.20;101770.78;687996;28;136053;-67
2022/06/03 02:24:48;;;;;;;1041.57;973.22;;;;;;;12.34;57.75;101762.81;686032;28;158938;-66
2022/06/03 02:25:23;;;;;;;1055.83;986.90;;;;;;;12.33;58.11;101766.53;687382;28;159006;-66
2022/06/03 02:26:04;;;;;;;1050.57;981.92;;;;;;;12.31;58.09;101766.69;686571;28;160570;-67
2022/06/03 02:26:53;;;;;;;1033.47;965.70;;;;;;;12.30;58.21;101761.44;687669;28;137638;-66
2022/06/03 02:27:28;;;;;;;1045.13;976.53;;;;;;;12.29;58.26;101767.88;687937;28;137786;-68
2022/06/03 02:28:19;;;;;;;1035.72;967.90;;;;;;;12.28;58.09;101772.44;687774;28;137527;-67
2022/06/03 02:30:47;;;;;;;1043.97;975.78;;;;;;;12.29;58.04;101762.44;688623;28;137514;-65
2022/06/03 02:31:37;;;;;;;1026.68;959.10;;;;;;;12.29;58.36;101767.88;689032;28;137872;-65
2022/06/03 02:32:10;;;;;;;1036.25;968.33;;;;;;;12.27;58.24;101768.03;680074;28;159797;-67
2022/06/03 02:32:56;;;;;;;1034.80;966.95;;;;;;;12.29;58.30;101765.16;689061;28;137993;-65
2022/06/03 02:33:51;;;;;;;1050.47;981.80;;;;;;;12.26;58.45;101769.06;689376;28;137527;-66
2022/06/03 02:34:28;;;;;;;1047.38;978.92;;;;;;;12.30;58.15;101770.41;688944;28;136456;-64
2022/06/03 02:35:28;;;;;;;1035.10;967.28;;;;;;;12.30;57.93;101762.28;663755;28;138536;-66
2022/06/03 02:36:21;;;;;;;1033.90;966.05;;;;;;;12.29;58.09;101762.44;680959;28;136048;-65
2022/06/03 02:37:18;;;;;;;1038.50;970.35;;;;;;;12.30;58.29;101765.00;679611;28;137472;-66
2022/06/03 02:38:18;;;;;;;1035.65;967.72;;;;;;;12.29;57.95;101766.03;677091;28;137517;-66
2022/06/03 02:38:47;;;;;;;1030.13;962.50;;;;;;;12.29;57.85;101767.88;671145;29;137555;-67
2022/06/03 02:39:21;;;;;;;1045.43;977.05;;;;;;;12.28;58.02;101775.16;681830;28;137501;-67
2022/06/03 02:40:09;;;;;;;1027.53;959.95;;;;;;;12.26;58.08;101766.34;685978;28;137281;-67
2022/06/03 02:40:51;;;;;;;1039.43;971.33;;;;;;;12.25;58.01;101768.19;687696;28;137412;-67
2022/06/03 02:41:33;;;;;;;1028.65;961.05;;;;;;;12.21;57.98;101769.53;675906;29;135978;-67
2022/06/03 02:42:11;;;;;;;1043.22;974.88;;;;;;;12.19;58.13;101766.13;688015;28;138326;-67
2022/06/03 02:43:02;;;;;;;1037.68;969.78;;;;;;;12.16;58.36;101765.63;687226;28;161188;-67
2022/06/03 02:43:52;;;;;;;1042.85;974.47;;;;;;;12.15;58.11;101763.94;686952;28;160621;-67
2022/06/03 02:44:43;;;;;;;1033.03;965.38;;;;;;;12.13;58.06;101764.09;688444;28;138068;-67
2022/06/03 02:45:28;;;;;;;1037.65;969.65;;;;;;;12.12;58.42;101765.09;686386;28;156270;-67
2022/06/03 02:46:22;;;;;;;1019.97;952.85;;;;;;;12.13;58.25;101761.41;687761;28;136124;-67
2022/06/03 02:47:13;;;;;;;1037.57;969.58;;;;;;;12.13;58.57;101763.22;677584;29;138041;-67
2022/06/03 02:47:55;;;;;;;1031.43;963.83;;;;;;;12.11;58.25;101762.56;687732;28;137748;-66
2022/06/03 02:48:36;;;;;;;1026.30;959.00;;;;;;;12.11;58.62;101762.56;687620;28;137314;-67
2022/06/03 02:49:22;;;;;;;1024.38;957.17;;;;;;;12.10;58.27;101763.56;688209;28;136105;-66
2022/06/03 02:50:04;;;;;;;1024.72;957.38;;;;;;;12.08;58.60;101758.28;687030;28;137694;-66
2022/06/03 02:50:48;;;;;;;1022.33;955.17;;;;;;;12.08;58.39;101756.47;688425;28;137554;-67
2022/06/03 02:51:45;;;;;;;1026.75;959.47;;;;;;;12.07;58.52;101760.16;688703;28;137504;-67
2022/06/03 02:52:58;;;;;;;1026.78;959.40;;;;;;;12.07;58.70;101760.16;685472;28;137735;-67
2022/06/03 02:54:08;;;;;;;1030.25;962.67;;;;;;;12.08;58.70;101758.28;683730;28;137472;-67
2022/06/03 02:55:21;;;;;;;1025.18;957.85;;;;;;;12.08;58.93;101763.72;688174;28;135866;-67
2022/06/03 02:55:56;;;;;;;1030.40;962.72;;;;;;;12.05;58.88;101758.63;675846;28;158064;-67
2022/06/03 02:56:34;;;;;;;1020.88;953.72;;;;;;;12.10;59.01;101768.97;676156;28;137185;-67
2022/06/03 02:57:36;;;;;;;1028.03;960.53;;;;;;;12.10;58.54;101764.41;676130;28;137975;-67
2022/06/03 02:58:34;;;;;;;1035.65;967.88;;;;;;;12.11;59.06;101754.44;676326;29;133222;-67
2022/06/03 02:59:27;;;;;;;1054.45;985.63;;;;;;;12.14;58.83;101762.22;676674;28;137572;-67
2022/06/03 02:59:59;;;;;;;1066.68;997.28;;;;;;;12.14;58.68;101765.78;676262;28;137542;-67
2022/06/03 03:00:36;;;;;;;1069.15;999.45;;;;;;;12.16;58.51;101762.91;679777;28;62337;-67
2022/06/03 03:01:53;;;;;;;1059.65;990.70;;;;;;;12.19;58.77;101762.59;676133;29;137758;-68
2022/06/03 03:02:48;;;;;;;1062.03;992.92;;;;;;;12.20;58.37;101761.59;678626;28;137144;-67
2022/06/03 03:03:22;;;;;;;1046.32;977.97;;;;;;;12.20;58.38;101764.28;678295;28;160518;-67
2022/06/03 03:04:14;;;;;;;1043.10;975.00;;;;;;;12.13;58.25;101753.25;679818;28;135967;-67
2022/06/03 03:04:58;;;;;;;1055.88;986.97;;;;;;;12.18;58.21;101764.44;678590;28;137493;-67
2022/06/03 03:05:30;;;;;;;1049.50;981.00;;;;;;;12.18;58.30;101759.03;679225;28;135991;-67
2022/06/03 03:06:25;;;;;;;1041.43;973.42;;;;;;;12.18;58.56;101753.63;679271;28;148304;-67